Time;durP1;ratioP1;P1;durP2;ratioP2;P2;SDS_P1;SDS_P2;PMS_P1;PMS_P2;Temp;Humidity;BMP_temperature;BMP_pressure;BME280_temperature;BME280_humidity;BME280_pressure;Samples;Min_cycle;Max_cycle;Signal;HPM_P1;HPM_P2
2022/04/21 00:00:20;;;;;;;4.13;2.03;;;9.90;99.90;10.50;98523.00;;;;4999962;28;87896;-63
2022/04/21 00:02:46;;;;;;;8.75;2.10;;;9.80;99.90;10.50;98512.00;;;;4997721;28;87508;-59
2022/04/21 00:05:13;;;;;;;9.98;2.10;;;9.80;99.90;10.40;98504.00;;;;5000772;28;87671;-61
2022/04/21 00:07:40;;;;;;;7.38;2.00;;;9.80;99.90;10.40;98519.00;;;;5000952;28;89530;-61
2022/04/21 00:10:08;;;;;;;4.32;2.10;;;9.80;99.90;10.30;98535.00;;;;5001294;28;87264;-61
2022/04/21 00:12:35;;;;;;;6.03;2.03;;;9.80;99.90;10.30;98508.00;;;;5001143;28;87285;-61
2022/04/21 00:15:04;;;;;;;4.57;1.70;;;9.70;99.90;10.20;98494.00;;;;5001480;28;87709;-61
2022/04/21 00:17:31;;;;;;;4.68;2.42;;;9.70;99.90;10.20;98539.00;;;;5001724;28;87244;-62
2022/04/21 00:19:57;;;;;;;9.68;2.40;;;9.60;99.90;10.20;98514.00;;;;5001121;28;87310;-62
2022/04/21 00:25:08;;;;;;;5.43;3.03;;;9.50;99.90;10.10;98528.00;;;;4999701;28;91740;-61
2022/04/21 00:27:39;;;;;;;10.90;2.72;;;9.50;99.90;10.00;98518.00;;;;5001198;28;88209;-61
2022/04/21 00:30:07;;;;;;;6.78;2.95;;;9.50;99.90;10.00;98516.00;;;;4999635;28;87839;-61
2022/04/21 00:32:38;;;;;;;5.95;3.35;;;9.40;99.90;10.00;98513.00;;;;5001813;28;87406;-61
2022/04/21 00:35:08;;;;;;;8.43;3.35;;;9.40;99.90;10.00;98521.00;;;;5000616;28;87701;-61
2022/04/21 00:37:51;;;;;;;5.28;2.95;;;9.40;99.90;9.90;98524.00;;;;4999307;28;87042;-61
2022/04/21 00:40:19;;;;;;;6.60;2.83;;;9.30;99.90;9.90;98526.00;;;;5001353;28;87296;-61
2022/04/21 00:42:46;;;;;;;4.85;2.50;;;9.30;99.90;9.90;98523.00;;;;5001090;28;86895;-61
2022/04/21 00:45:14;;;;;;;5.32;2.10;;;9.30;99.90;9.80;98534.00;;;;5000840;28;87385;-61
2022/04/21 00:47:43;;;;;;;5.93;2.33;;;9.20;99.90;9.90;98525.00;;;;5000216;28;87416;-61
2022/04/21 00:50:13;;;;;;;6.03;2.28;;;9.30;99.90;9.70;98492.00;;;;4999986;28;88316;-61
2022/04/21 00:52:40;;;;;;;5.63;2.17;;;9.20;99.90;9.80;98520.00;;;;4981246;28;87179;-61
2022/04/21 00:55:08;;;;;;;3.95;1.90;;;9.20;99.90;9.70;98519.00;;;;4988554;28;88138;-61
2022/04/21 00:57:36;;;;;;;11.57;2.10;;;9.20;99.90;9.70;98512.00;;;;5000274;28;87809;-62
2022/04/21 01:00:05;;;;;;;6.43;2.00;;;9.10;99.90;9.70;98534.00;;;;4998690;28;87086;-62
2022/04/21 01:02:52;;;;;;;4.22;1.98;;;9.10;99.90;9.60;98499.00;;;;4998617;28;87338;-62
2022/04/21 01:05:30;;;;;;;5.18;2.10;;;9.10;99.90;9.60;98513.00;;;;4998951;28;88045;-62
2022/04/21 01:08:07;;;;;;;4.30;2.17;;;9.10;99.90;9.60;98516.00;;;;4998601;28;88321;-62
2022/04/21 01:10:39;;;;;;;5.50;2.33;;;9.10;99.90;9.60;98505.00;;;;5000528;28;87361;-63
2022/04/21 01:13:08;;;;;;;6.65;1.90;;;9.00;99.90;9.60;98499.00;;;;5000052;28;87013;-63
2022/04/21 01:15:37;;;;;;;6.45;1.75;;;9.10;99.90;9.60;98557.00;;;;4997778;28;88809;-61
2022/04/21 01:18:05;;;;;;;5.97;1.88;;;9.00;99.90;9.50;98496.00;;;;4999951;28;88140;-63
2022/04/21 01:20:31;;;;;;;5.97;1.65;;;9.00;99.90;9.60;98517.00;;;;4996578;28;87127;-63
2022/04/21 01:22:57;;;;;;;5.53;1.85;;;9.00;99.90;9.50;98505.00;;;;4997734;28;87049;-63
2022/04/21 01:25:24;;;;;;;3.28;1.60;;;9.00;99.90;9.50;98511.00;;;;4998728;28;90154;-59
2022/04/21 01:27:58;;;;;;;5.35;1.60;;;9.00;99.90;9.50;98514.00;;;;4999507;28;88838;-59
2022/04/21 01:30:24;;;;;;;5.68;2.25;;;8.90;99.90;9.50;98508.00;;;;5012390;28;86981;-59
2022/04/21 01:32:51;;;;;;;5.13;1.80;;;8.90;99.90;9.50;98509.00;;;;5000433;28;86408;-59
2022/04/21 01:35:17;;;;;;;7.72;2.20;;;8.90;99.90;9.50;98521.00;;;;4999145;28;87710;-59
2022/04/21 01:43:13;;;;;;;5.47;1.55;;;8.80;99.90;9.30;98509.00;;;;4999875;28;86994;-58
2022/04/21 01:45:41;;;;;;;4.60;1.83;;;8.80;99.90;9.30;98526.00;;;;4999374;28;87689;-58
2022/04/21 01:48:07;;;;;;;5.28;1.98;;;8.80;99.90;9.30;98508.00;;;;4998897;28;88624;-60
2022/04/21 01:50:33;;;;;;;7.45;1.90;;;8.70;99.90;9.30;98516.00;;;;5003448;28;87500;-59
2022/04/21 01:53:00;;;;;;;7.72;2.45;;;8.70;99.90;9.30;98512.00;;;;5002853;28;87118;-56
2022/04/21 01:55:27;;;;;;;3.20;1.55;;;8.70;99.90;9.20;98506.00;;;;5002887;28;88851;-59
2022/04/21 01:57:53;;;;;;;4.45;1.60;;;8.70;99.90;9.20;98514.00;;;;5002739;28;89015;-58
2022/04/21 02:00:20;;;;;;;4.82;2.00;;;8.60;99.90;9.20;98520.00;;;;5002441;28;87351;-58
2022/04/21 02:02:46;;;;;;;6.43;2.00;;;8.60;99.90;9.10;98507.00;;;;5002337;28;88169;-63
2022/04/21 02:05:12;;;;;;;5.78;1.63;;;8.60;99.90;9.10;98500.00;;;;5001166;28;88739;-61
2022/04/21 02:07:46;;;;;;;5.57;1.70;;;8.60;99.90;9.10;98495.00;;;;5003449;28;88342;-60
2022/04/21 02:10:14;;;;;;;6.75;1.70;;;8.60;99.90;9.10;98509.00;;;;5003062;28;87461;-60
2022/04/21 02:12:41;;;;;;;5.03;1.90;;;8.50;99.90;9.10;98503.00;;;;5002330;28;87167;-60
2022/04/21 02:15:09;;;;;;;4.43;1.73;;;8.50;99.90;9.00;98498.00;;;;5001727;28;88475;-58
2022/04/21 02:17:36;;;;;;;3.60;1.55;;;8.50;99.90;9.00;98517.00;;;;5002724;28;87422;-59
2022/04/21 02:20:06;;;;;;;7.10;1.90;;;8.50;99.90;8.90;98509.00;;;;5003029;28;87072;-60
2022/04/21 02:22:34;;;;;;;4.20;1.52;;;8.40;99.90;9.00;98491.00;;;;4999532;28;86165;-62
2022/04/21 02:25:06;;;;;;;5.53;2.00;;;8.40;99.90;8.90;98490.00;;;;5000730;28;87640;-62
2022/04/21 02:27:34;;;;;;;7.22;1.83;;;8.30;99.90;8.80;98492.00;;;;5002792;28;87522;-61
2022/04/21 02:30:00;;;;;;;4.97;1.80;;;8.30;99.90;8.80;98486.00;;;;5003033;28;87958;-61
2022/04/21 02:32:26;;;;;;;2.83;1.60;;;8.30;99.90;8.80;98496.00;;;;5003090;28;86952;-62
2022/04/21 02:34:53;;;;;;;2.92;1.65;;;8.20;99.90;8.80;98480.00;;;;5002073;28;88096;-61
2022/04/21 02:37:21;;;;;;;4.82;1.85;;;8.20;99.90;8.70;98508.00;;;;5003000;28;87019;-62
2022/04/21 02:39:49;;;;;;;5.10;1.80;;;8.20;99.90;8.70;98494.00;;;;5003160;28;87286;-59
2022/04/21 02:42:16;;;;;;;5.45;1.60;;;8.20;99.90;8.70;98495.00;;;;5017752;28;87179;-57
2022/04/21 02:44:43;;;;;;;3.63;1.80;;;8.10;99.90;8.70;98515.00;;;;5018371;28;88800;-58
2022/04/21 02:47:09;;;;;;;3.58;1.80;;;8.10;99.90;8.60;98503.00;;;;5002978;28;87503;-59
2022/04/21 02:49:36;;;;;;;3.40;1.60;;;8.10;99.90;8.60;98462.00;;;;5003234;28;87210;-59
2022/04/21 02:52:08;;;;;;;5.00;1.60;;;8.10;99.90;8.60;98488.00;;;;5001439;28;87615;-59
2022/04/21 02:57:22;;;;;;;2.60;1.58;;;8.00;99.90;8.50;98492.00;;;;5001840;28;88321;-61
2022/04/21 02:59:55;;;;;;;4.35;1.70;;;8.00;99.90;8.50;98491.00;;;;5001136;28;87409;-61
2022/04/21 03:02:23;;;;;;;5.25;1.40;;;8.00;99.90;8.50;98506.00;;;;5016936;28;88973;-60
2022/04/21 03:04:51;;;;;;;6.05;1.70;;;8.00;99.90;8.50;98500.00;;;;4999950;28;88808;-60
2022/04/21 03:07:17;;;;;;;3.67;1.92;;;7.90;99.90;8.50;98491.00;;;;5001441;28;87035;-60
2022/04/21 03:09:44;;;;;;;3.67;1.40;;;7.90;99.90;8.50;98495.00;;;;5001780;28;87925;-60
2022/04/21 03:12:11;;;;;;;6.25;2.08;;;7.90;99.90;8.50;98497.00;;;;5002278;28;86285;-59
2022/04/21 03:14:39;;;;;;;5.10;1.60;;;7.90;99.90;8.50;98492.00;;;;5002210;28;87311;-59
2022/04/21 03:17:07;;;;;;;4.82;1.65;;;7.90;99.90;8.60;98510.00;;;;5001608;28;87389;-59
2022/04/21 03:19:35;;;;;;;5.00;2.03;;;7.90;99.90;8.50;98509.00;;;;5001123;28;89248;-59
2022/04/21 03:24:47;;;;;;;5.78;2.17;;;7.90;99.90;8.40;98518.00;;;;4999926;28;87624;-61
2022/04/21 03:27:14;;;;;;;7.38;1.77;;;7.90;99.90;8.40;98522.00;;;;5001507;28;87434;-61
2022/04/21 03:29:41;;;;;;;7.53;1.85;;;7.90;99.90;8.30;98517.00;;;;5001489;28;87043;-62
2022/04/21 03:32:10;;;;;;;5.38;1.48;;;7.80;99.90;8.30;98540.00;;;;5001695;28;87084;-63
2022/04/21 03:34:42;;;;;;;4.07;1.50;;;7.80;99.90;8.30;98540.00;;;;5001056;28;87771;-61
2022/04/21 03:37:11;;;;;;;5.13;1.65;;;7.80;99.90;8.30;98529.00;;;;5002175;28;87209;-61
2022/04/21 03:39:38;;;;;;;3.10;1.50;;;7.80;99.90;8.20;98537.00;;;;5001895;28;87377;-61
2022/04/21 03:42:07;;;;;;;11.38;1.70;;;7.70;99.90;8.20;98525.00;;;;5000632;28;87168;-59
2022/04/21 03:44:40;;;;;;;8.15;1.63;;;7.70;99.90;8.20;98520.00;;;;5001054;28;88717;-61
2022/04/21 03:47:06;;;;;;;5.38;1.70;;;7.70;99.90;8.20;98534.00;;;;5000841;28;88157;-63
2022/04/21 03:49:32;;;;;;;5.93;1.65;;;7.70;99.90;8.20;98538.00;;;;5000984;28;87439;-64
2022/04/21 03:51:58;;;;;;;5.00;1.52;;;7.70;99.90;8.20;98535.00;;;;5001680;28;87031;-64
2022/04/21 03:54:26;;;;;;;2.85;1.35;;;7.70;99.90;8.20;98534.00;;;;5001180;28;87700;-64
2022/04/21 03:56:54;;;;;;;4.82;1.88;;;7.60;99.90;8.10;98529.00;;;;4999504;28;87239;-63
2022/04/21 03:59:23;;;;;;;3.30;1.73;;;7.60;99.90;8.00;98515.00;;;;4999861;28;87180;-63
2022/04/21 04:01:51;;;;;;;13.07;2.08;;;7.60;99.90;8.10;98528.00;;;;4999481;28;86213;-63
2022/04/21 04:04:17;;;;;;;3.95;1.75;;;7.60;99.90;8.00;98513.00;;;;4999115;28;88704;-64
2022/04/21 04:12:13;;;;;;;3.00;1.65;;;7.60;99.90;8.10;98500.00;;;;4995514;28;87102;-63
2022/04/21 04:14:39;;;;;;;4.70;1.80;;;7.60;99.90;8.20;98492.00;;;;5001508;28;88523;-64
2022/04/21 04:17:08;;;;;;;5.10;1.95;;;7.70;99.90;8.20;98483.00;;;;5001451;28;87497;-64
2022/04/21 04:19:35;;;;;;;4.15;1.48;;;7.70;99.90;8.20;98489.00;;;;5017029;28;87302;-64
2022/04/21 04:22:03;;;;;;;5.72;1.65;;;7.70;99.90;8.20;98492.00;;;;5001431;28;87499;-64
2022/04/21 04:24:29;;;;;;;4.75;1.88;;;7.80;99.90;8.20;98500.00;;;;4983277;28;90311;-63
2022/04/21 04:26:56;;;;;;;7.40;1.90;;;7.70;99.90;8.20;98504.00;;;;5000751;28;87378;-63
2022/04/21 04:29:22;;;;;;;4.85;2.22;;;7.70;99.90;8.00;98489.00;;;;5000657;28;87334;-63
2022/04/21 04:31:53;;;;;;;3.72;1.63;;;7.60;99.90;8.00;98493.00;;;;5001643;28;86911;-63
2022/04/21 04:34:20;;;;;;;4.45;1.95;;;7.50;99.90;8.10;98509.00;;;;5000876;28;88514;-63
2022/04/21 04:36:46;;;;;;;3.45;1.50;;;7.50;99.90;8.10;98497.00;;;;4999430;28;88269;-63
2022/04/21 04:39:14;;;;;;;2.45;1.58;;;7.50;99.90;8.00;98494.00;;;;5000706;28;87239;-63
2022/04/21 04:44:26;;;;;;;6.53;1.63;;;7.40;99.90;7.80;98491.00;;;;4997831;28;88967;-63
2022/04/21 04:46:53;;;;;;;4.20;1.90;;;7.30;99.90;7.70;98502.00;;;;5000394;28;87276;-64
2022/04/21 04:49:19;;;;;;;3.85;2.10;;;7.20;99.90;7.70;98506.00;;;;5003468;28;87246;-64
2022/04/21 04:51:45;;;;;;;4.10;1.60;;;7.20;99.90;7.80;98502.00;;;;5001041;28;86408;-64
2022/04/21 04:54:15;;;;;;;5.72;1.85;;;7.20;99.90;7.70;98511.00;;;;5000451;28;88640;-65
2022/04/21 04:56:47;;;;;;;4.93;1.70;;;7.20;99.90;7.70;98499.00;;;;5001094;28;87132;-64
2022/04/21 04:59:14;;;;;;;4.60;2.00;;;7.10;99.90;7.70;98502.00;;;;4994423;28;87927;-64
2022/04/21 05:01:43;;;;;;;2.95;2.05;;;7.10;99.90;7.70;98504.00;;;;4998694;28;87621;-64
2022/04/21 05:04:19;;;;;;;4.80;1.80;;;7.10;99.90;7.70;98504.00;;;;5000011;28;87474;-65
2022/04/21 05:06:57;;;;;;;3.30;1.88;;;7.20;99.90;7.70;98516.00;;;;5000542;28;87372;-65
2022/04/21 05:09:24;;;;;;;3.60;1.98;;;7.20;99.90;7.80;98526.00;;;;5000178;28;87345;-63
2022/04/21 05:11:54;;;;;;;3.45;1.83;;;7.30;99.90;7.70;98509.00;;;;5000679;28;86941;-64
2022/04/21 05:14:21;;;;;;;5.43;1.83;;;7.30;99.90;7.70;98522.00;;;;5000060;28;87821;-61
2022/04/21 05:16:49;;;;;;;6.70;2.15;;;7.30;99.90;7.70;98522.00;;;;5000988;28;87209;-61
2022/04/21 05:19:19;;;;;;;3.88;1.95;;;7.20;99.90;7.70;98526.00;;;;5000670;28;86869;-61
2022/04/21 05:21:48;;;;;;;5.05;2.22;;;7.20;99.90;7.70;98521.00;;;;5000274;28;87057;-63
2022/04/21 05:24:15;;;;;;;5.30;2.75;;;7.20;99.90;7.70;98537.00;;;;4977288;28;89734;-61
2022/04/21 05:26:43;;;;;;;6.15;2.65;;;7.10;99.90;7.60;98540.00;;;;5000299;28;88218;-62
2022/04/21 05:32:01;;;;;;;6.65;2.92;;;7.00;99.90;7.50;98545.00;;;;4999672;28;86996;-61
2022/04/21 05:34:29;;;;;;;5.53;2.58;;;7.00;99.90;7.60;98563.00;;;;4999624;28;87722;-61
2022/04/21 05:36:58;;;;;;;5.53;2.33;;;7.10;99.90;7.60;98577.00;;;;4999467;28;87476;-60
2022/04/21 05:39:26;;;;;;;6.55;2.75;;;7.00;99.90;7.50;98564.00;;;;5000388;28;87178;-62
2022/04/21 05:41:54;;;;;;;4.80;2.40;;;7.00;99.90;7.50;98566.00;;;;5015146;28;86456;-61
2022/04/21 05:44:21;;;;;;;6.00;2.30;;;7.00;99.90;7.40;98570.00;;;;4963059;28;88896;-61
2022/04/21 05:46:48;;;;;;;5.97;2.50;;;6.90;99.90;7.50;98586.00;;;;4981080;28;89157;-61
2022/04/21 05:49:15;;;;;;;4.93;2.35;;;6.90;99.90;7.30;98606.00;;;;4999177;28;87940;-61
2022/04/21 05:51:42;;;;;;;4.18;1.98;;;6.80;99.90;7.20;98600.00;;;;4998051;28;87386;-61
2022/04/21 05:54:08;;;;;;;7.25;2.60;;;6.70;99.90;7.20;98590.00;;;;5000386;28;88971;-60
2022/04/21 05:56:35;;;;;;;6.72;2.55;;;6.70;99.90;7.20;98593.00;;;;5000027;28;87819;-61
2022/04/21 05:59:03;;;;;;;4.78;2.50;;;6.60;99.90;7.00;98596.00;;;;4999921;28;87386;-60
2022/04/21 06:01:30;;;;;;;3.75;2.20;;;6.50;99.90;6.90;98582.00;;;;4998405;28;87290;-60
2022/04/21 06:03:57;;;;;;;5.30;2.50;;;6.40;99.90;6.90;98601.00;;;;4999466;28;87484;-59
2022/04/21 06:06:23;;;;;;;4.63;2.45;;;6.40;99.90;7.00;98598.00;;;;4996164;28;88736;-63
2022/04/21 06:08:49;;;;;;;4.78;2.00;;;6.40;99.90;6.90;98609.00;;;;4999586;28;87375;-64
2022/04/21 06:11:16;;;;;;;6.28;2.78;;;6.30;99.90;6.90;98601.00;;;;4999141;28;87458;-63
2022/04/21 06:13:42;;;;;;;4.60;2.92;;;6.40;99.90;6.90;98617.00;;;;4998754;28;89663;-63
2022/04/21 06:16:09;;;;;;;6.05;2.50;;;6.30;99.90;6.90;98621.00;;;;4999680;28;89877;-63
2022/04/21 06:18:36;;;;;;;3.72;2.10;;;6.30;99.90;6.80;98622.00;;;;4998359;28;87286;-61
2022/04/21 06:21:04;;;;;;;4.95;2.67;;;6.30;99.90;6.80;98623.00;;;;5000086;28;87354;-61
2022/04/21 06:23:33;;;;;;;4.68;2.60;;;6.30;99.90;6.80;98616.00;;;;5014427;28;87718;-61
2022/04/21 06:26:00;;;;;;;5.25;2.47;;;6.20;99.90;6.80;98620.00;;;;4999747;28;88562;-62
2022/04/21 06:28:27;;;;;;;4.15;2.20;;;6.30;99.90;6.70;98631.00;;;;4999705;28;87297;-62
2022/04/21 06:30:53;;;;;;;6.82;2.60;;;6.20;99.90;6.80;98629.00;;;;5000101;28;86324;-61
2022/04/21 06:33:20;;;;;;;4.75;2.97;;;6.30;99.90;6.80;98622.00;;;;4999435;28;87554;-62
2022/04/21 06:35:46;;;;;;;3.58;2.45;;;6.30;99.90;6.80;98635.00;;;;4999293;28;87099;-61
2022/04/21 06:38:13;;;;;;;4.20;2.50;;;6.30;99.90;6.90;98636.00;;;;5002852;28;87998;-61
2022/04/21 06:40:39;;;;;;;4.68;2.60;;;6.30;99.90;6.80;98643.00;;;;5002771;28;87101;-62
2022/04/21 06:48:50;;;;;;;5.13;2.70;;;6.40;99.90;6.90;98649.00;;;;5012931;28;87314;-61
2022/04/21 06:51:18;;;;;;;4.80;2.72;;;6.40;99.90;7.10;98648.00;;;;5003024;28;87189;-57
2022/04/21 06:53:44;;;;;;;7.22;2.70;;;6.50;99.90;7.20;98658.00;;;;5002211;28;88684;-64
2022/04/21 06:56:12;;;;;;;4.38;2.55;;;6.60;99.90;7.10;98643.00;;;;4998888;28;88427;-60
2022/04/21 06:58:40;;;;;;;5.88;2.75;;;6.60;99.90;7.10;98656.00;;;;5001983;28;87837;-60
2022/04/21 07:01:06;;;;;;;5.07;2.45;;;6.60;99.90;7.10;98675.00;;;;5002559;28;87446;-62
2022/04/21 07:03:34;;;;;;;5.70;2.90;;;6.60;99.90;7.00;98650.00;;;;5001525;28;89526;-61
2022/04/21 07:06:05;;;;;;;6.38;2.80;;;6.50;99.90;7.00;98658.00;;;;5000746;28;88209;-62
2022/04/21 07:08:31;;;;;;;4.47;2.63;;;6.50;99.90;6.90;98656.00;;;;5001420;28;87798;-62
2022/04/21 07:10:57;;;;;;;5.82;3.05;;;6.40;99.90;6.90;98654.00;;;;5001793;28;87266;-62
2022/04/21 07:13:23;;;;;;;6.00;2.90;;;6.40;99.90;7.00;98653.00;;;;4999978;28;87855;-62
2022/04/21 07:15:49;;;;;;;6.53;2.92;;;6.40;99.90;6.90;98656.00;;;;5002320;28;87300;-62
2022/04/21 07:18:16;;;;;;;6.93;3.00;;;6.30;99.90;6.90;98669.00;;;;5002604;28;87022;-65
2022/04/21 07:20:43;;;;;;;6.50;2.97;;;6.40;99.90;6.90;98662.00;;;;5002439;28;86621;-65
2022/04/21 07:23:09;;;;;;;4.63;3.00;;;6.40;99.90;6.80;98666.00;;;;5002025;28;87679;-64
2022/04/21 07:25:35;;;;;;;6.47;2.90;;;6.30;99.90;6.90;98662.00;;;;5001544;28;87373;-60
2022/04/21 07:28:01;;;;;;;4.05;2.90;;;6.40;99.90;6.90;98683.00;;;;5000504;28;87943;-58
2022/04/21 07:30:27;;;;;;;5.82;3.13;;;6.30;99.90;6.90;98664.00;;;;4998078;28;88493;-58
2022/04/21 07:32:53;;;;;;;5.93;2.83;;;6.30;99.90;6.90;98678.00;;;;4982203;28;88177;-59
2022/04/21 07:35:20;;;;;;;7.00;3.08;;;6.30;99.90;6.90;98666.00;;;;4989326;28;88365;-58
2022/04/21 07:37:46;;;;;;;4.78;2.72;;;6.30;99.90;6.90;98669.00;;;;5001966;28;87187;-60
2022/04/21 07:40:12;;;;;;;7.00;3.15;;;6.40;99.90;7.00;98696.00;;;;5002291;28;87114;-59
2022/04/21 07:42:39;;;;;;;6.13;2.90;;;6.40;99.90;6.90;98685.00;;;;5001226;28;88640;-59
2022/04/21 07:45:06;;;;;;;5.95;3.47;;;6.40;99.90;7.00;98693.00;;;;5001670;28;88409;-59
2022/04/21 07:47:32;;;;;;;5.90;3.05;;;6.40;99.90;6.90;98680.00;;;;5001563;28;87254;-59
2022/04/21 07:49:59;;;;;;;5.05;3.80;;;6.40;99.90;7.00;98693.00;;;;5001642;28;87061;-60
2022/04/21 07:55:24;;;;;;;5.45;3.00;;;6.40;99.90;6.90;98695.00;;;;5000999;28;89208;-64
2022/04/21 07:57:53;;;;;;;4.78;3.25;;;6.30;99.90;6.90;98702.00;;;;5017167;28;87502;-57
2022/04/21 08:00:20;;;;;;;5.80;3.67;;;6.30;99.90;6.90;98709.00;;;;5000757;28;87896;-58
2022/04/21 08:02:47;;;;;;;4.68;3.20;;;6.30;99.90;6.90;98703.00;;;;5000036;28;88511;-60
2022/04/21 08:05:17;;;;;;;6.28;3.25;;;6.30;99.90;6.80;98693.00;;;;4999828;28;88421;-58
2022/04/21 08:07:46;;;;;;;6.70;3.47;;;6.20;99.90;6.80;98709.00;;;;5000659;28;87300;-58
2022/04/21 08:10:15;;;;;;;7.53;3.42;;;6.20;99.90;6.80;98729.00;;;;5001954;28;86368;-58
2022/04/21 08:12:44;;;;;;;5.55;3.47;;;6.20;99.90;6.70;98736.00;;;;5001025;28;87675;-56
2022/04/21 08:15:31;;;;;;;6.75;4.10;;;6.10;99.90;6.70;98727.00;;;;5000749;28;87363;-58
2022/04/21 08:18:05;;;;;;;5.47;3.90;;;6.10;99.90;6.50;98724.00;;;;5001550;28;87907;-57
2022/04/21 08:20:34;;;;;;;5.45;3.55;;;6.00;99.90;6.50;98737.00;;;;5000702;28;87340;-60
2022/04/21 08:23:02;;;;;;;5.97;3.50;;;6.00;99.90;6.50;98732.00;;;;4999333;28;88774;-59
2022/04/21 08:33:42;;;;;;;6.28;4.43;;;5.90;99.90;6.40;98762.00;;;;5001307;28;88251;-55
2022/04/21 08:36:09;;;;;;;8.13;4.55;;;5.90;99.90;6.40;98758.00;;;;4999152;28;87630;-55
2022/04/21 08:38:35;;;;;;;6.88;4.40;;;5.80;99.90;6.40;98743.00;;;;5000357;28;87280;-58
2022/04/21 08:41:07;;;;;;;5.45;4.30;;;5.80;99.90;6.40;98763.00;;;;5001234;28;87032;-58
2022/04/21 08:43:34;;;;;;;7.57;3.90;;;5.80;99.90;6.30;98753.00;;;;4999144;28;88977;-59
2022/04/21 08:46:03;;;;;;;5.82;4.38;;;5.80;99.90;6.30;98741.00;;;;5000703;28;90356;-58
2022/04/21 08:48:30;;;;;;;6.45;4.10;;;5.70;99.90;6.30;98757.00;;;;5000697;28;86965;-56
2022/04/21 08:50:57;;;;;;;6.85;4.18;;;5.70;99.90;6.20;98743.00;;;;5000299;28;87170;-57
2022/04/21 08:53:24;;;;;;;6.32;4.35;;;5.70;99.90;6.20;98769.00;;;;5015309;28;87534;-57
2022/04/21 08:55:52;;;;;;;6.30;4.40;;;5.70;99.90;6.20;98762.00;;;;5000545;28;87589;-59
2022/04/21 08:58:19;;;;;;;5.38;4.18;;;5.70;99.90;6.20;98772.00;;;;4998490;28;87496;-59
2022/04/21 09:00:46;;;;;;;5.88;4.20;;;5.70;99.90;6.20;98769.00;;;;5016114;28;86647;-61
2022/04/21 09:03:14;;;;;;;5.90;3.85;;;5.70;99.90;6.20;98778.00;;;;4998174;28;87951;-58
2022/04/21 09:05:41;;;;;;;6.15;4.70;;;5.70;99.90;6.30;98792.00;;;;4999381;28;88223;-59
2022/04/21 09:08:27;;;;;;;5.55;4.07;;;5.70;99.90;6.20;98751.00;;;;4998546;28;88460;-59
2022/04/21 09:11:11;;;;;;;5.50;3.60;;;5.70;99.90;6.30;98805.00;;;;4997143;28;86979;-59
2022/04/21 09:13:44;;;;;;;5.38;4.20;;;5.70;99.90;6.30;98803.00;;;;4999304;28;87467;-60
2022/04/21 09:16:12;;;;;;;6.47;4.22;;;5.80;99.90;6.30;98806.00;;;;4995114;28;87111;-58
2022/04/21 09:18:42;;;;;;;6.85;4.75;;;5.80;99.90;6.30;98805.00;;;;4999817;28;87440;-58
2022/04/21 09:21:14;;;;;;;5.43;4.00;;;5.80;99.90;6.40;98812.00;;;;4999835;28;87006;-59
2022/04/21 09:23:43;;;;;;;8.20;4.18;;;5.80;99.90;6.40;98803.00;;;;4999619;28;87548;-60
2022/04/21 09:26:14;;;;;;;5.90;4.18;;;5.80;99.90;6.40;98793.00;;;;4982563;28;88260;-59
2022/04/21 09:28:42;;;;;;;5.88;4.13;;;5.90;99.90;6.40;98803.00;;;;5000166;28;87035;-58
2022/04/21 09:31:10;;;;;;;5.43;3.45;;;5.90;99.90;6.40;98810.00;;;;4999627;28;86955;-59
2022/04/21 09:33:46;;;;;;;5.85;3.95;;;5.90;99.90;6.50;98806.00;;;;4999487;28;89513;-59
2022/04/21 09:36:12;;;;;;;5.95;3.72;;;5.90;99.90;6.50;98809.00;;;;4999654;28;88433;-58
2022/04/21 09:38:39;;;;;;;4.38;3.70;;;5.90;99.90;6.50;98820.00;;;;5000219;28;87231;-60
2022/04/21 09:41:11;;;;;;;5.65;4.53;;;5.90;99.90;6.50;98812.00;;;;5015906;28;87032;-60
2022/04/21 09:43:42;;;;;;;6.88;4.20;;;6.00;99.90;6.60;98814.00;;;;4999681;28;88674;-59
2022/04/21 09:46:17;;;;;;;5.30;3.88;;;6.00;99.90;6.50;98830.00;;;;5000247;28;87451;-59
2022/04/21 09:48:44;;;;;;;5.38;4.28;;;5.90;99.90;6.50;98826.00;;;;5000182;28;87108;-59
2022/04/21 09:51:19;;;;;;;5.13;4.10;;;6.00;99.90;6.50;98835.00;;;;4999708;28;86254;-59
2022/04/21 09:54:00;;;;;;;6.43;4.25;;;6.00;99.90;6.40;98820.00;;;;5000173;28;87449;-60
2022/04/21 09:56:40;;;;;;;5.07;4.00;;;5.90;99.90;6.60;98860.00;;;;4999802;28;87390;-61
2022/04/21 09:59:09;;;;;;;6.00;4.03;;;6.00;99.90;6.70;98856.00;;;;4998885;28;87914;-59
2022/04/21 10:01:38;;;;;;;5.25;4.30;;;6.00;99.90;6.50;98852.00;;;;4999113;28;87506;-56
2022/04/21 10:04:13;;;;;;;5.18;4.38;;;6.00;99.90;6.50;98849.00;;;;5013165;28;87618;-56
2022/04/21 10:06:44;;;;;;;5.57;4.40;;;5.90;99.90;6.60;98850.00;;;;4996217;28;87301;-59
2022/04/21 10:09:12;;;;;;;6.20;4.32;;;6.00;99.90;6.60;98855.00;;;;4999713;28;87033;-59
2022/04/21 10:11:42;;;;;;;6.28;4.07;;;6.00;99.90;6.50;98850.00;;;;5003404;28;87354;-59
2022/04/21 10:14:15;;;;;;;6.03;4.53;;;5.90;99.90;6.60;98858.00;;;;4985366;28;88833;-59
2022/04/21 10:16:42;;;;;;;5.28;3.92;;;6.00;99.90;6.60;98848.00;;;;5003668;28;88686;-58
2022/04/21 10:19:10;;;;;;;6.32;4.32;;;6.00;99.90;6.60;98866.00;;;;4983436;28;87189;-57
2022/04/21 10:21:53;;;;;;;6.93;3.80;;;6.00;99.90;6.50;98874.00;;;;5015801;28;87618;-58
2022/04/21 10:24:25;;;;;;;5.35;4.20;;;6.00;99.90;6.70;98878.00;;;;4996428;28;88570;-61
2022/04/21 10:26:52;;;;;;;5.35;4.13;;;6.00;99.90;6.70;98873.00;;;;5001844;28;88439;-56
2022/04/21 10:29:23;;;;;;;5.95;4.38;;;6.00;99.90;6.70;98887.00;;;;5003091;28;87237;-60
2022/04/21 10:32:03;;;;;;;5.82;4.20;;;6.10;99.90;6.70;98882.00;;;;4989963;28;87343;-58
2022/04/21 10:34:45;;;;;;;5.43;3.95;;;6.00;99.90;6.70;98874.00;;;;5002603;28;88769;-59
2022/04/21 10:37:19;;;;;;;4.30;3.70;;;6.10;99.90;6.60;98886.00;;;;4999419;28;87443;-59
2022/04/21 10:40:07;;;;;;;5.63;5.03;;;6.10;99.90;6.60;98879.00;;;;5003084;28;86982;-60
2022/04/21 10:42:52;;;;;;;7.20;4.05;;;6.10;99.90;6.60;98892.00;;;;5001755;28;86528;-57
2022/04/21 10:45:32;;;;;;;5.35;4.00;;;6.10;99.90;6.70;98896.00;;;;5003204;28;87294;-60
2022/04/21 10:48:08;;;;;;;5.45;4.43;;;6.00;99.90;6.70;98893.00;;;;5002822;28;87442;-58
2022/04/21 10:50:36;;;;;;;7.22;4.32;;;6.10;99.90;6.70;98903.00;;;;5001766;28;88122;-61
2022/04/21 10:58:33;;;;;;;5.05;4.07;;;6.10;99.90;6.70;98902.00;;;;5015934;28;87020;-61
2022/04/21 11:01:17;;;;;;;5.97;4.22;;;6.10;99.90;6.70;98929.00;;;;5001683;28;87215;-65
2022/04/21 11:03:46;;;;;;;6.75;4.40;;;6.10;99.90;6.70;98931.00;;;;5001725;28;87316;-65
2022/04/21 11:06:16;;;;;;;4.82;4.00;;;6.10;99.90;6.60;98924.00;;;;5000692;28;89129;-64
2022/04/21 11:08:43;;;;;;;4.82;3.97;;;6.10;99.90;6.60;98924.00;;;;5002570;28;87893;-64
2022/04/21 11:11:11;;;;;;;5.07;3.95;;;6.00;99.90;6.60;98923.00;;;;5017156;28;87234;-64
2022/04/21 11:13:52;;;;;;;6.18;4.32;;;6.00;99.90;6.60;98937.00;;;;5001125;28;87463;-64
2022/04/21 11:16:45;;;;;;;5.78;4.30;;;6.00;99.90;6.70;98933.00;;;;5000654;28;88495;-64
2022/04/21 11:19:32;;;;;;;7.07;4.70;;;6.00;99.90;6.60;98937.00;;;;5002181;28;88374;-64
2022/04/21 11:22:08;;;;;;;6.55;5.07;;;6.00;99.90;6.70;98953.00;;;;4999311;28;87009;-64
2022/04/21 11:24:59;;;;;;;5.15;4.60;;;6.00;99.90;6.50;98936.00;;;;5001751;28;87488;-60
2022/04/21 11:27:26;;;;;;;5.35;4.85;;;6.00;99.90;6.60;98935.00;;;;5001493;28;87769;-58
2022/04/21 11:33:48;;;;;;;5.07;4.20;;;6.00;99.90;6.60;98944.00;;;;4971918;28;87336;-58
2022/04/21 11:36:19;;;;;;;6.10;4.57;;;6.00;99.90;6.60;98941.00;;;;4999723;28;86263;-63
2022/04/21 11:38:51;;;;;;;5.70;4.85;;;6.00;99.90;6.70;98950.00;;;;4999997;28;88705;-64
2022/04/21 11:41:18;;;;;;;5.82;4.90;;;6.00;99.90;6.60;98959.00;;;;5001794;28;87488;-66
2022/04/21 11:43:48;;;;;;;6.95;4.25;;;6.00;99.90;6.60;98943.00;;;;5000708;28;88186;-62
2022/04/21 11:46:19;;;;;;;5.93;4.93;;;6.10;99.90;6.60;98940.00;;;;4984607;28;87158;-62
2022/04/21 11:48:45;;;;;;;7.90;5.13;;;6.00;99.90;6.70;98931.00;;;;5001272;28;88677;-63
2022/04/21 11:51:24;;;;;;;9.02;4.78;;;6.10;99.90;6.60;98939.00;;;;5016646;28;87531;-63
2022/04/21 11:53:51;;;;;;;5.38;4.43;;;6.00;99.90;6.60;98947.00;;;;5000500;28;87326;-64
2022/04/21 11:56:17;;;;;;;4.88;4.25;;;6.10;99.90;6.70;98965.00;;;;5000117;28;87302;-66
2022/04/21 11:58:44;;;;;;;6.50;4.25;;;6.10;99.90;6.80;98950.00;;;;5000958;28;87513;-63
2022/04/21 12:07:04;;;;;;;4.93;4.25;;;6.20;99.90;6.80;98958.00;;;;5000336;28;87263;-63
2022/04/21 12:09:39;;;;;;;6.35;5.53;;;6.10;99.90;6.70;98972.00;;;;5000464;28;89598;-62
2022/04/21 12:12:07;;;;;;;7.00;5.47;;;6.10;99.90;6.80;98970.00;;;;5001163;28;88581;-61
2022/04/21 12:14:35;;;;;;;5.53;4.70;;;6.10;99.90;6.70;98964.00;;;;5015202;28;87243;-62